createdAt,value
2023-01-06T00:02:24.508Z,0.10
2023-01-06T00:04:51.591Z,0.20
2023-01-06T00:07:18.770Z,0.70
2023-01-06T00:09:45.917Z,0.10
2023-01-06T00:12:13.015Z,0.20
2023-01-06T00:14:42.576Z,0.10
2023-01-06T00:17:09.921Z,0.00
2023-01-06T00:19:37.089Z,0.50
2023-01-06T00:22:05.774Z,0.20
2023-01-06T00:24:34.013Z,0.10
2023-01-06T00:27:01.498Z,0.10
2023-01-06T00:29:29.267Z,0.10
2023-01-06T00:31:56.442Z,0.20
2023-01-06T00:34:23.646Z,0.10
2023-01-06T00:36:50.796Z,0.13
2023-01-06T00:39:17.958Z,0.10
2023-01-06T00:42:05.135Z,0.10
2023-01-06T00:44:33.408Z,0.10
2023-01-06T00:47:00.597Z,0.20
2023-01-06T00:49:28.007Z,0.10
2023-01-06T00:51:55.456Z,0.10
2023-01-06T00:54:22.717Z,0.05
2023-01-06T00:56:51.048Z,0.40
2023-01-06T00:59:19.362Z,0.10
2023-01-06T01:01:47.479Z,0.10
2023-01-06T01:04:15.294Z,0.10
2023-01-06T01:06:43.421Z,0.10
2023-01-06T01:09:13.372Z,0.20
2023-01-06T01:12:00.521Z,0.10
2023-01-06T01:14:27.678Z,0.00
2023-01-06T01:16:54.867Z,0.10
2023-01-06T01:19:24.258Z,0.00
2023-01-06T01:21:51.489Z,0.00
2023-01-06T01:24:19.226Z,0.00
2023-01-06T01:26:46.381Z,0.10
2023-01-06T01:29:14.945Z,0.30
2023-01-06T01:31:42.480Z,0.47
2023-01-06T01:34:10.257Z,0.10
2023-01-06T01:36:40.745Z,0.10
2023-01-06T01:39:07.966Z,0.10
2023-01-06T01:41:35.082Z,0.05
2023-01-06T01:44:03.860Z,0.00
2023-01-06T01:46:31.037Z,0.15
2023-01-06T01:49:01.066Z,0.10
2023-01-06T01:51:31.405Z,0.00
2023-01-06T01:53:59.838Z,0.28
2023-01-06T01:56:29.786Z,0.15
2023-01-06T01:59:00.030Z,0.00
2023-01-06T02:01:27.457Z,0.20
2023-01-06T02:03:54.860Z,0.00
2023-01-06T02:06:23.518Z,0.30
2023-01-06T02:08:54.656Z,0.10
2023-01-06T02:11:21.892Z,0.10
2023-01-06T02:13:51.479Z,0.10
2023-01-06T02:16:23.499Z,0.30
2023-01-06T02:18:51.683Z,0.10
2023-01-06T02:21:28.721Z,0.20
2023-01-06T02:23:59.155Z,0.10
2023-01-06T02:26:46.175Z,0.10
2023-01-06T02:29:33.240Z,0.10
2023-01-06T02:32:00.322Z,0.20
2023-01-06T02:34:43.012Z,0.38
2023-01-06T02:37:18.075Z,0.00
2023-01-06T02:39:52.645Z,0.10
2023-01-06T02:42:23.238Z,0.80
2023-01-06T02:45:10.242Z,0.10
2023-01-06T02:47:44.583Z,0.10
2023-01-06T02:50:20.433Z,0.15
2023-01-06T02:52:52.803Z,0.10
2023-01-06T02:55:39.795Z,0.20
2023-01-06T02:58:11.491Z,0.10
2023-01-06T03:00:43.734Z,0.10
2023-01-06T03:03:13.374Z,0.00
2023-01-06T03:05:41.612Z,0.00
2023-01-06T03:08:12.967Z,0.00
2023-01-06T03:10:42.007Z,0.10
2023-01-06T03:13:13.878Z,0.00
2023-01-06T03:15:41.051Z,0.10
2023-01-06T03:18:08.183Z,0.10
2023-01-06T03:20:35.763Z,0.10
2023-01-06T03:23:02.886Z,0.10
2023-01-06T03:25:30.287Z,0.10
2023-01-06T03:27:57.433Z,0.10
2023-01-06T03:30:28.208Z,0.10
2023-01-06T03:33:00.169Z,0.10
2023-01-06T03:35:42.985Z,0.20
2023-01-06T03:38:17.453Z,0.00
2023-01-06T03:40:50.091Z,0.00
2023-01-06T03:43:17.374Z,0.08
2023-01-06T03:45:52.381Z,0.20
2023-01-06T03:48:26.910Z,0.08
2023-01-06T03:51:09.735Z,0.10
2023-01-06T03:53:37.970Z,0.10
2023-01-06T03:56:25.005Z,0.10
2023-01-06T03:58:54.549Z,0.10
2023-01-06T04:01:23.652Z,0.00
2023-01-06T04:03:53.174Z,0.10
2023-01-06T04:06:20.463Z,0.50
2023-01-06T04:08:47.611Z,0.00
2023-01-06T04:11:34.831Z,0.15
2023-01-06T04:14:01.920Z,0.10
2023-01-06T04:16:29.103Z,0.10
2023-01-06T04:18:56.231Z,0.30
2023-01-06T04:21:23.372Z,0.10
2023-01-06T04:23:50.574Z,0.10
2023-01-06T04:26:17.750Z,0.10
2023-01-06T04:28:45.275Z,0.20
2023-01-06T04:31:12.467Z,0.10
2023-01-06T04:33:39.642Z,0.10
2023-01-06T04:36:07.046Z,0.10
2023-01-06T04:38:34.166Z,0.10
2023-01-06T04:41:01.264Z,0.10
2023-01-06T04:43:28.439Z,0.08
2023-01-06T04:45:58.081Z,0.10
2023-01-06T04:48:25.476Z,0.00
2023-01-06T04:51:01.200Z,0.00
2023-01-06T04:53:28.327Z,0.00
2023-01-06T04:55:55.448Z,0.00
2023-01-06T04:58:22.594Z,0.00
2023-01-06T05:00:49.796Z,0.10
2023-01-06T05:03:16.958Z,0.10
2023-01-06T05:05:44.171Z,0.80
2023-01-06T05:08:11.271Z,0.50
2023-01-06T05:10:38.371Z,0.20
2023-01-06T05:13:05.543Z,0.10
2023-01-06T05:15:32.671Z,0.10
2023-01-06T05:17:59.865Z,0.10
2023-01-06T05:20:27.032Z,0.10
2023-01-06T05:22:54.163Z,0.10
2023-01-06T05:25:21.242Z,0.10
2023-01-06T05:27:48.437Z,0.10
2023-01-06T05:30:15.587Z,0.20
2023-01-06T05:32:42.759Z,0.10
2023-01-06T05:35:10.098Z,0.20
2023-01-06T05:37:37.176Z,0.00
2023-01-06T05:40:04.409Z,0.00
2023-01-06T05:42:31.548Z,0.00
2023-01-06T05:44:58.726Z,0.08
2023-01-06T05:47:25.903Z,0.00
2023-01-06T05:49:53.035Z,0.10
2023-01-06T05:52:20.131Z,0.10
2023-01-06T05:54:47.229Z,0.10
2023-01-06T05:57:14.431Z,0.10
2023-01-06T05:59:41.523Z,0.10
2023-01-06T06:02:08.695Z,0.10
2023-01-06T06:04:35.874Z,0.10
2023-01-06T06:07:03.080Z,0.10
2023-01-06T06:09:30.464Z,0.10
2023-01-06T06:11:57.479Z,0.10
2023-01-06T06:14:26.551Z,0.10
2023-01-06T06:16:53.702Z,0.10
2023-01-06T06:19:20.813Z,0.10
2023-01-06T06:21:47.966Z,0.10
2023-01-06T06:24:15.100Z,0.00
2023-01-06T06:26:42.234Z,0.00
2023-01-06T06:29:09.457Z,0.10
2023-01-06T06:31:36.671Z,0.10
2023-01-06T06:34:04.435Z,0.00
2023-01-06T06:36:32.263Z,0.10
2023-01-06T06:38:59.868Z,0.13
2023-01-06T06:41:27.060Z,0.10
2023-01-06T06:43:54.254Z,0.10
2023-01-06T06:46:21.772Z,0.10
2023-01-06T06:48:50.878Z,0.20
2023-01-06T06:51:19.224Z,0.20
2023-01-06T06:53:46.575Z,0.15
2023-01-06T06:56:14.262Z,0.10
2023-01-06T06:58:41.325Z,0.10
2023-01-06T07:01:09.355Z,0.10
2023-01-06T07:03:36.756Z,0.10
2023-01-06T07:06:04.870Z,0.10
2023-01-06T07:08:35.114Z,0.00
2023-01-06T07:11:02.544Z,0.10
2023-01-06T07:13:29.704Z,0.00
2023-01-06T07:15:57.101Z,0.15
2023-01-06T07:18:24.251Z,0.17
2023-01-06T07:20:53.654Z,0.10
2023-01-06T07:23:21.294Z,0.10
2023-01-06T07:25:52.163Z,0.10
2023-01-06T07:28:19.281Z,0.10
2023-01-06T07:30:46.451Z,0.10
2023-01-06T07:33:13.616Z,0.10
2023-01-06T07:35:40.753Z,0.70
2023-01-06T07:38:08.456Z,0.00
2023-01-06T07:40:36.135Z,0.00
2023-01-06T07:43:05.760Z,0.00
2023-01-06T07:45:33.270Z,0.10
2023-01-06T07:48:00.398Z,0.20
2023-01-06T07:50:28.165Z,0.10
2023-01-06T07:52:58.223Z,0.10
2023-01-06T07:55:25.495Z,0.10
2023-01-06T07:57:52.686Z,0.10
2023-01-06T08:00:20.208Z,0.20
2023-01-06T08:02:47.529Z,0.10
2023-01-06T08:05:14.741Z,0.52
2023-01-06T08:07:41.885Z,0.20
2023-01-06T08:10:09.268Z,0.30
2023-01-06T08:12:37.178Z,0.15
2023-01-06T08:15:04.844Z,0.20
2023-01-06T08:17:32.271Z,0.35
2023-01-06T08:19:59.400Z,0.15
2023-01-06T08:22:26.578Z,0.30
2023-01-06T08:24:53.765Z,0.10
2023-01-06T08:27:20.960Z,0.30
2023-01-06T08:29:50.100Z,0.10
2023-01-06T08:32:17.441Z,0.10
2023-01-06T08:34:44.610Z,0.20
2023-01-06T08:37:11.767Z,0.00
2023-01-06T08:39:38.965Z,0.20
2023-01-06T08:42:06.163Z,1.70
2023-01-06T08:44:33.358Z,1.60
2023-01-06T08:47:00.516Z,1.90
2023-01-06T08:49:27.646Z,1.75
2023-01-06T08:51:54.728Z,1.90
2023-01-06T08:54:21.877Z,2.10
2023-01-06T08:56:49.109Z,2.03
2023-01-06T08:59:17.126Z,1.87
2023-01-06T09:01:44.923Z,2.30
2023-01-06T09:04:12.108Z,2.60
2023-01-06T09:06:41.931Z,2.67
2023-01-06T09:09:11.811Z,2.42
2023-01-06T09:11:41.239Z,1.90
2023-01-06T09:14:08.990Z,2.13
2023-01-06T09:16:36.110Z,2.13
2023-01-06T09:19:03.321Z,1.90
2023-01-06T09:21:30.537Z,2.30
2023-01-06T09:23:57.863Z,3.65
2023-01-06T09:26:24.992Z,2.80
2023-01-06T09:28:52.226Z,4.37
2023-01-06T09:31:19.461Z,2.20
2023-01-06T09:33:46.679Z,3.58
2023-01-06T09:36:14.016Z,4.90
2023-01-06T09:38:41.151Z,4.80
2023-01-06T09:41:11.523Z,2.70
2023-01-06T09:43:47.842Z,5.90
2023-01-06T09:46:17.065Z,3.13
2023-01-06T09:48:47.302Z,2.30
2023-01-06T09:51:18.233Z,1.77
2023-01-06T09:53:46.897Z,1.70
2023-01-06T09:56:15.685Z,1.95
2023-01-06T09:58:46.842Z,1.50
2023-01-06T10:01:16.950Z,1.48
2023-01-06T10:03:46.461Z,1.20
2023-01-06T10:06:32.280Z,1.20
2023-01-06T10:09:20.774Z,1.20
2023-01-06T10:12:03.576Z,1.35
2023-01-06T10:14:39.138Z,1.20
2023-01-06T10:17:12.322Z,1.20
2023-01-06T10:19:47.652Z,1.10
2023-01-06T10:22:29.449Z,1.20
2023-01-06T10:25:02.745Z,1.40
2023-01-06T10:27:36.779Z,1.50
2023-01-06T10:30:05.338Z,1.10
2023-01-06T10:32:34.734Z,1.60
2023-01-06T10:35:02.511Z,1.90
2023-01-06T10:37:37.061Z,1.45
2023-01-06T10:40:13.556Z,1.50
2023-01-06T10:43:03.337Z,1.55
2023-01-06T10:45:34.198Z,1.20
2023-01-06T10:48:02.642Z,1.20
2023-01-06T10:50:29.817Z,1.10
2023-01-06T10:52:56.935Z,1.00
2023-01-06T10:55:27.369Z,1.02
2023-01-06T10:57:55.984Z,1.30
2023-01-06T11:00:24.303Z,1.27
2023-01-06T11:02:52.464Z,1.02
2023-01-06T11:05:20.807Z,1.10
2023-01-06T11:07:50.361Z,1.00
2023-01-06T11:10:25.062Z,1.50
2023-01-06T11:12:52.269Z,1.23
2023-01-06T11:15:22.205Z,1.10
2023-01-06T11:17:49.528Z,1.30
2023-01-06T11:20:17.687Z,1.20
2023-01-06T11:22:45.072Z,1.10
2023-01-06T11:25:30.426Z,1.10
2023-01-06T11:28:15.418Z,1.20
2023-01-06T11:30:50.277Z,1.20
2023-01-06T11:33:19.909Z,0.90
2023-01-06T11:35:48.129Z,1.00
2023-01-06T11:38:15.965Z,1.10
2023-01-06T11:40:44.404Z,1.00
2023-01-06T11:43:16.436Z,1.35
2023-01-06T11:45:45.018Z,1.00
2023-01-06T11:48:17.071Z,1.10
2023-01-06T11:51:01.010Z,1.50
2023-01-06T11:53:29.547Z,1.00
2023-01-06T11:55:57.903Z,1.23
2023-01-06T11:58:33.679Z,1.10
2023-01-06T12:01:06.497Z,1.15
2023-01-06T12:03:41.266Z,1.08
2023-01-06T12:06:08.616Z,1.13
2023-01-06T12:08:37.434Z,1.10
2023-01-06T12:11:11.594Z,1.20
2023-01-06T12:13:45.661Z,1.20
2023-01-06T12:16:28.883Z,1.00
2023-01-06T12:18:56.271Z,1.17
2023-01-06T12:21:28.836Z,1.38
2023-01-06T12:23:57.111Z,1.20
2023-01-06T12:26:25.199Z,1.20
2023-01-06T12:28:54.076Z,1.30
2023-01-06T12:31:25.270Z,1.20
2023-01-06T12:33:52.401Z,1.67
2023-01-06T12:36:23.957Z,3.65
2023-01-06T12:38:54.846Z,1.20
2023-01-06T12:41:32.903Z,2.00
2023-01-06T12:44:20.005Z,2.30
2023-01-06T12:46:53.653Z,1.60
2023-01-06T12:49:24.145Z,1.33
2023-01-06T12:51:53.803Z,2.65
2023-01-06T12:54:25.586Z,1.48
2023-01-06T12:56:56.034Z,1.40
2023-01-06T12:59:31.487Z,1.92
2023-01-06T13:02:14.259Z,1.58
2023-01-06T13:04:58.286Z,1.20
2023-01-06T13:07:45.483Z,1.15
2023-01-06T13:10:18.822Z,1.60
2023-01-06T13:12:50.869Z,2.30
2023-01-06T13:15:34.587Z,1.30
2023-01-06T13:18:12.086Z,2.22
2023-01-06T13:20:45.005Z,1.20
2023-01-06T13:23:13.151Z,1.20
2023-01-06T13:25:41.241Z,1.70
2023-01-06T13:28:16.645Z,1.40
2023-01-06T13:30:47.074Z,1.30
2023-01-06T13:33:15.248Z,1.40
2023-01-06T13:35:42.286Z,1.25
2023-01-06T13:38:12.669Z,1.20
2023-01-06T13:40:41.136Z,1.30
2023-01-06T13:43:08.213Z,1.13
2023-01-06T13:45:38.157Z,1.17
2023-01-06T13:48:08.683Z,1.30
2023-01-06T13:50:37.921Z,1.10
2023-01-06T13:53:05.659Z,1.60
2023-01-06T13:55:36.515Z,1.33
2023-01-06T13:58:25.436Z,1.30
2023-01-06T14:01:12.633Z,1.20
2023-01-06T14:03:42.079Z,1.10
2023-01-06T14:06:11.120Z,0.90
2023-01-06T14:08:40.065Z,0.80
2023-01-06T14:11:20.435Z,0.95
2023-01-06T14:13:51.523Z,0.95
2023-01-06T14:16:18.797Z,1.07
2023-01-06T14:18:47.213Z,1.00
2023-01-06T14:21:14.395Z,0.95
2023-01-06T14:23:50.275Z,0.90
2023-01-06T14:26:17.380Z,0.90
2023-01-06T14:28:44.560Z,1.20
2023-01-06T14:31:27.484Z,1.02
2023-01-06T14:33:57.317Z,1.00
2023-01-06T14:36:25.066Z,0.82
2023-01-06T14:38:57.818Z,1.00
2023-01-06T14:41:34.327Z,0.90
2023-01-06T14:44:04.135Z,1.13
2023-01-06T14:46:32.990Z,1.27
2023-01-06T14:49:01.887Z,1.30
2023-01-06T14:51:29.763Z,1.08
2023-01-06T14:53:59.295Z,1.13
2023-01-06T14:56:27.992Z,1.25
2023-01-06T14:59:12.006Z,1.10
2023-01-06T15:01:40.284Z,1.40
2023-01-06T15:04:07.915Z,1.00
2023-01-06T15:06:35.087Z,0.90
2023-01-06T15:09:22.188Z,1.00
2023-01-06T15:11:49.328Z,1.10
2023-01-06T15:14:24.582Z,0.80
2023-01-06T15:16:51.831Z,0.88
2023-01-06T15:19:19.059Z,0.90
2023-01-06T15:21:47.744Z,0.88
2023-01-06T15:24:19.829Z,0.90
2023-01-06T15:26:47.058Z,1.00
2023-01-06T15:29:16.378Z,0.95
2023-01-06T15:31:44.034Z,1.10
2023-01-06T15:34:14.985Z,0.90
2023-01-06T15:36:44.200Z,1.30
2023-01-06T15:39:14.237Z,1.33
2023-01-06T15:41:41.839Z,1.10
2023-01-06T15:44:24.507Z,1.20
2023-01-06T15:46:53.399Z,0.90
2023-01-06T15:49:24.019Z,1.50
2023-01-06T15:51:55.281Z,1.75
2023-01-06T15:54:22.519Z,1.45
2023-01-06T15:56:49.756Z,1.80
2023-01-06T15:59:16.948Z,1.80
2023-01-06T16:01:53.570Z,1.92
2023-01-06T16:04:22.107Z,2.00
2023-01-06T16:06:49.420Z,2.20
2023-01-06T16:09:27.391Z,2.20
2023-01-06T16:11:59.202Z,1.63
2023-01-06T16:14:26.440Z,2.50
2023-01-06T16:16:53.991Z,3.63
2023-01-06T16:19:21.976Z,2.83
2023-01-06T16:21:52.596Z,1.88
2023-01-06T16:24:21.262Z,1.70
2023-01-06T16:26:52.520Z,1.73
2023-01-06T16:29:36.491Z,1.80
2023-01-06T16:32:23.518Z,1.90
2023-01-06T16:34:51.584Z,2.53
2023-01-06T16:37:18.845Z,2.70
2023-01-06T16:39:46.164Z,3.70
2023-01-06T16:42:33.165Z,3.30
2023-01-06T16:45:02.541Z,4.40
2023-01-06T16:47:29.839Z,4.00
2023-01-06T16:49:57.087Z,2.97
2023-01-06T16:52:25.767Z,2.95
2023-01-06T16:54:53.849Z,3.23
2023-01-06T16:57:21.225Z,6.30
2023-01-06T16:59:48.445Z,3.30
2023-01-06T17:02:16.941Z,3.38
2023-01-06T17:04:44.492Z,5.97
2023-01-06T17:07:13.981Z,2.13
2023-01-06T17:09:41.645Z,3.63
2023-01-06T17:12:11.189Z,2.95
2023-01-06T17:14:38.641Z,6.00
2023-01-06T17:17:14.209Z,2.30
2023-01-06T17:19:42.062Z,2.03
2023-01-06T17:22:29.155Z,2.17
2023-01-06T17:24:59.285Z,5.10
2023-01-06T17:27:28.474Z,8.20
2023-01-06T17:29:56.152Z,9.38
2023-01-06T17:32:27.668Z,4.97
2023-01-06T17:34:55.812Z,4.95
2023-01-06T17:37:24.168Z,5.82
2023-01-06T17:39:51.327Z,8.88
2023-01-06T17:42:18.494Z,12.48
2023-01-06T17:44:45.734Z,12.15
2023-01-06T17:47:16.141Z,10.45
2023-01-06T17:49:52.363Z,8.98
2023-01-06T17:52:22.301Z,9.13
2023-01-06T17:55:12.743Z,7.67
2023-01-06T17:57:41.199Z,4.90
2023-01-06T18:00:16.910Z,3.42
2023-01-06T18:02:47.530Z,2.80
2023-01-06T18:05:21.904Z,5.90
2023-01-06T18:07:49.067Z,6.80
2023-01-06T18:10:17.950Z,5.40
2023-01-06T18:12:45.215Z,4.15
2023-01-06T18:15:27.904Z,4.38
2023-01-06T18:17:56.487Z,4.20
2023-01-06T18:20:23.766Z,3.60
2023-01-06T18:22:50.935Z,3.67
2023-01-06T18:25:20.197Z,4.65
2023-01-06T18:27:49.955Z,8.50
2023-01-06T18:30:21.169Z,7.13
2023-01-06T18:32:50.164Z,6.38
2023-01-06T18:35:21.476Z,6.03
2023-01-06T18:37:49.367Z,4.90
2023-01-06T18:40:18.821Z,4.75
2023-01-06T18:42:47.147Z,4.97
2023-01-06T18:45:18.499Z,4.05
2023-01-06T18:47:48.263Z,3.60
2023-01-06T18:50:37.093Z,3.85
2023-01-06T18:53:16.144Z,3.97
2023-01-06T18:55:45.635Z,12.70
2023-01-06T18:58:12.730Z,9.57
2023-01-06T19:00:39.930Z,5.57
2023-01-06T19:03:28.599Z,5.40
2023-01-06T19:06:04.914Z,5.63
2023-01-06T19:08:34.622Z,6.03
2023-01-06T19:11:02.418Z,4.20
2023-01-06T19:13:30.114Z,3.78
2023-01-06T19:16:01.642Z,5.43
2023-01-06T19:18:30.050Z,6.38
2023-01-06T19:20:58.757Z,7.15
2023-01-06T19:23:27.470Z,7.15
2023-01-06T19:26:00.770Z,7.23
2023-01-06T19:28:30.434Z,7.77
2023-01-06T19:30:58.773Z,6.00
2023-01-06T19:33:26.993Z,4.03
2023-01-06T19:35:59.734Z,3.85
2023-01-06T19:38:28.336Z,3.80
2023-01-06T19:40:56.389Z,4.00
2023-01-06T19:43:26.974Z,3.97
2023-01-06T19:45:54.415Z,5.67
2023-01-06T19:48:22.654Z,25.27
2023-01-06T19:50:50.225Z,13.57
2023-01-06T19:53:30.914Z,15.25
2023-01-06T19:56:00.539Z,10.70
2023-01-06T19:58:34.361Z,8.05
2023-01-06T20:01:01.506Z,11.18
2023-01-06T20:03:30.270Z,11.40
2023-01-06T20:05:57.520Z,10.13
2023-01-06T20:08:26.750Z,9.43
2023-01-06T20:10:55.013Z,16.70
2023-01-06T20:13:22.220Z,14.32
2023-01-06T20:15:49.380Z,7.97
2023-01-06T20:18:16.559Z,6.10
2023-01-06T20:20:43.793Z,5.00
2023-01-06T20:23:11.307Z,4.22
2023-01-06T20:25:38.492Z,3.72
2023-01-06T20:28:05.744Z,3.50
2023-01-06T20:30:32.907Z,3.97
2023-01-06T20:33:00.050Z,4.20
2023-01-06T20:35:27.182Z,3.90
2023-01-06T20:37:54.362Z,4.90
2023-01-06T20:40:21.599Z,4.00
2023-01-06T20:42:48.632Z,4.40
2023-01-06T20:45:15.867Z,4.47
2023-01-06T20:47:44.082Z,4.28
2023-01-06T20:50:13.744Z,3.70
2023-01-06T20:52:41.647Z,3.38
2023-01-06T20:55:09.369Z,3.08
2023-01-06T20:57:36.607Z,2.85
2023-01-06T21:00:04.210Z,2.70
2023-01-06T21:02:31.453Z,3.37
2023-01-06T21:04:58.700Z,2.60
2023-01-06T21:07:25.861Z,2.40
2023-01-06T21:09:52.967Z,2.40
2023-01-06T21:12:20.163Z,2.55
2023-01-06T21:14:47.280Z,3.45
2023-01-06T21:17:14.431Z,7.00
2023-01-06T21:19:41.565Z,3.30
2023-01-06T21:22:08.692Z,3.40
2023-01-06T21:24:35.855Z,3.13
2023-01-06T21:27:02.973Z,4.20
2023-01-06T21:29:30.165Z,4.88
2023-01-06T21:31:57.287Z,5.97
2023-01-06T21:34:24.555Z,5.47
2023-01-06T21:36:51.683Z,4.32
2023-01-06T21:39:18.831Z,3.50
2023-01-06T21:42:05.840Z,3.40
2023-01-06T21:44:32.976Z,2.80
2023-01-06T21:47:00.259Z,2.92
2023-01-06T21:49:27.583Z,3.10
2023-01-06T21:51:55.559Z,2.80
2023-01-06T21:54:22.699Z,3.10
2023-01-06T21:56:50.278Z,2.67
2023-01-06T21:59:17.660Z,2.83
2023-01-06T22:01:44.776Z,2.78
2023-01-06T22:04:12.086Z,2.55
2023-01-06T22:06:40.523Z,2.30
2023-01-06T22:09:08.323Z,2.33
2023-01-06T22:11:36.146Z,1.98
2023-01-06T22:14:03.351Z,1.90
2023-01-06T22:16:30.851Z,2.30
2023-01-06T22:18:58.252Z,2.58
2023-01-06T22:21:26.298Z,2.40
2023-01-06T22:23:54.599Z,2.00
2023-01-06T22:26:21.678Z,2.20
2023-01-06T22:28:48.896Z,2.30
2023-01-06T22:31:16.099Z,2.17
2023-01-06T22:33:43.309Z,2.25
2023-01-06T22:36:10.558Z,1.95
2023-01-06T22:38:37.719Z,2.00
2023-01-06T22:41:04.957Z,2.13
2023-01-06T22:43:32.109Z,1.90
2023-01-06T22:45:59.393Z,2.03
2023-01-06T22:48:26.901Z,1.98
2023-01-06T22:50:58.119Z,2.20
2023-01-06T22:53:25.430Z,1.90
2023-01-06T22:56:00.703Z,1.87
2023-01-06T22:58:28.190Z,1.80
2023-01-06T23:00:55.551Z,1.83
2023-01-06T23:03:23.017Z,2.00
2023-01-06T23:06:07.401Z,1.85
2023-01-06T23:08:36.524Z,1.70
2023-01-06T23:11:06.118Z,2.03
2023-01-06T23:13:33.890Z,1.70
2023-01-06T23:16:00.920Z,1.70
2023-01-06T23:18:30.902Z,1.60
2023-01-06T23:20:59.017Z,1.95
2023-01-06T23:23:26.134Z,1.90
2023-01-06T23:25:53.332Z,2.00
2023-01-06T23:28:20.473Z,1.70
2023-01-06T23:30:47.618Z,1.87
2023-01-06T23:33:14.823Z,1.70
2023-01-06T23:35:42.062Z,1.70
2023-01-06T23:38:09.203Z,1.60
2023-01-06T23:40:36.378Z,1.40
2023-01-06T23:43:03.505Z,1.70
2023-01-06T23:45:30.699Z,1.60
2023-01-06T23:47:57.931Z,1.58
2023-01-06T23:50:25.104Z,1.50
2023-01-06T23:52:54.636Z,1.70
2023-01-06T23:55:21.889Z,1.80
2023-01-06T23:57:49.047Z,1.92
